sensor_id;sensor_type;location;lat;lon;timestamp;P1;durP1;ratioP1;P2;durP2;ratioP2
15806;SDS011;8005;51.368;6.140;2022-10-16T00:00:50;7.82;;;3.67;;
15806;SDS011;8005;51.368;6.140;2022-10-16T00:02:22;5.43;;;2.78;;
15806;SDS011;8005;51.368;6.140;2022-10-16T00:03:56;8.77;;;3.50;;
15806;SDS011;8005;51.368;6.140;2022-10-16T00:05:31;5.63;;;3.17;;
15806;SDS011;8005;51.368;6.140;2022-10-16T00:07:04;6.15;;;2.80;;
15806;SDS011;8005;51.368;6.140;2022-10-16T00:08:42;10.15;;;3.50;;
15806;SDS011;8005;51.368;6.140;2022-10-16T00:10:14;17.05;;;3.80;;
15806;SDS011;8005;51.368;6.140;2022-10-16T00:11:54;5.47;;;3.22;;
15806;SDS011;8005;51.368;6.140;2022-10-16T00:13:31;4.90;;;3.22;;
15806;SDS011;8005;51.368;6.140;2022-10-16T00:15:03;8.05;;;4.20;;
15806;SDS011;8005;51.368;6.140;2022-10-16T00:16:37;10.85;;;3.63;;
15806;SDS011;8005;51.368;6.140;2022-10-16T00:18:14;6.03;;;3.30;;
15806;SDS011;8005;51.368;6.140;2022-10-16T00:21:19;10.25;;;3.70;;
15806;SDS011;8005;51.368;6.140;2022-10-16T00:22:51;5.53;;;3.17;;
15806;SDS011;8005;51.368;6.140;2022-10-16T00:24:27;10.98;;;3.60;;
15806;SDS011;8005;51.368;6.140;2022-10-16T00:26:01;8.02;;;3.33;;
15806;SDS011;8005;51.368;6.140;2022-10-16T00:27:36;9.27;;;3.55;;
15806;SDS011;8005;51.368;6.140;2022-10-16T00:29:11;10.98;;;4.43;;
15806;SDS011;8005;51.368;6.140;2022-10-16T00:30:44;7.07;;;3.47;;
15806;SDS011;8005;51.368;6.140;2022-10-16T00:32:17;6.53;;;3.38;;
15806;SDS011;8005;51.368;6.140;2022-10-16T00:33:52;6.03;;;3.40;;
15806;SDS011;8005;51.368;6.140;2022-10-16T00:35:27;5.93;;;3.20;;
15806;SDS011;8005;51.368;6.140;2022-10-16T00:37:07;7.75;;;3.17;;
15806;SDS011;8005;51.368;6.140;2022-10-16T00:38:49;8.27;;;3.40;;
15806;SDS011;8005;51.368;6.140;2022-10-16T00:40:24;5.22;;;3.38;;
15806;SDS011;8005;51.368;6.140;2022-10-16T00:42:15;7.75;;;3.28;;
15806;SDS011;8005;51.368;6.140;2022-10-16T00:43:56;9.30;;;3.50;;
15806;SDS011;8005;51.368;6.140;2022-10-16T00:45:47;6.53;;;3.50;;
15806;SDS011;8005;51.368;6.140;2022-10-16T00:47:30;6.85;;;3.05;;
15806;SDS011;8005;51.368;6.140;2022-10-16T00:50:38;4.90;;;3.33;;
15806;SDS011;8005;51.368;6.140;2022-10-16T00:52:18;4.93;;;2.80;;
15806;SDS011;8005;51.368;6.140;2022-10-16T00:53:56;5.10;;;2.88;;
15806;SDS011;8005;51.368;6.140;2022-10-16T00:55:35;6.28;;;2.88;;
15806;SDS011;8005;51.368;6.140;2022-10-16T00:57:13;6.18;;;3.10;;
15806;SDS011;8005;51.368;6.140;2022-10-16T00:59:03;7.20;;;2.75;;
15806;SDS011;8005;51.368;6.140;2022-10-16T01:00:43;7.95;;;3.08;;
15806;SDS011;8005;51.368;6.140;2022-10-16T01:02:38;4.65;;;2.67;;
15806;SDS011;8005;51.368;6.140;2022-10-16T01:04:16;5.75;;;2.60;;
15806;SDS011;8005;51.368;6.140;2022-10-16T01:05:59;4.70;;;2.58;;
15806;SDS011;8005;51.368;6.140;2022-10-16T01:11:10;6.53;;;2.47;;
15806;SDS011;8005;51.368;6.140;2022-10-16T01:14:32;3.67;;;2.10;;
15806;SDS011;8005;51.368;6.140;2022-10-16T01:16:13;6.93;;;2.60;;
15806;SDS011;8005;51.368;6.140;2022-10-16T01:18:00;8.35;;;3.00;;
15806;SDS011;8005;51.368;6.140;2022-10-16T01:20:00;6.85;;;3.00;;
15806;SDS011;8005;51.368;6.140;2022-10-16T01:21:38;4.80;;;2.30;;
15806;SDS011;8005;51.368;6.140;2022-10-16T01:25:05;6.75;;;2.25;;
15806;SDS011;8005;51.368;6.140;2022-10-16T01:28:27;6.50;;;2.75;;
15806;SDS011;8005;51.368;6.140;2022-10-16T01:30:29;5.07;;;2.08;;
15806;SDS011;8005;51.368;6.140;2022-10-16T01:32:22;3.95;;;2.08;;
15806;SDS011;8005;51.368;6.140;2022-10-16T01:34:06;5.38;;;2.53;;
15806;SDS011;8005;51.368;6.140;2022-10-16T01:35:58;5.20;;;2.60;;
15806;SDS011;8005;51.368;6.140;2022-10-16T01:37:40;7.53;;;2.97;;
15806;SDS011;8005;51.368;6.140;2022-10-16T01:39:20;4.50;;;2.40;;
15806;SDS011;8005;51.368;6.140;2022-10-16T01:41:09;9.65;;;3.05;;
15806;SDS011;8005;51.368;6.140;2022-10-16T01:42:50;8.93;;;2.40;;
15806;SDS011;8005;51.368;6.140;2022-10-16T01:44:30;7.13;;;2.83;;
15806;SDS011;8005;51.368;6.140;2022-10-16T01:46:10;5.18;;;2.78;;
15806;SDS011;8005;51.368;6.140;2022-10-16T01:47:55;5.50;;;2.65;;
15806;SDS011;8005;51.368;6.140;2022-10-16T01:49:29;4.40;;;2.22;;
15806;SDS011;8005;51.368;6.140;2022-10-16T01:51:08;3.85;;;1.98;;
15806;SDS011;8005;51.368;6.140;2022-10-16T01:52:45;5.32;;;2.10;;
15806;SDS011;8005;51.368;6.140;2022-10-16T01:54:20;5.32;;;2.47;;
15806;SDS011;8005;51.368;6.140;2022-10-16T01:56:09;5.30;;;2.00;;
15806;SDS011;8005;51.368;6.140;2022-10-16T01:57:46;5.28;;;1.85;;
15806;SDS011;8005;51.368;6.140;2022-10-16T01:59:27;4.60;;;1.70;;
15806;SDS011;8005;51.368;6.140;2022-10-16T02:01:02;4.68;;;2.50;;
15806;SDS011;8005;51.368;6.140;2022-10-16T02:02:36;5.03;;;1.90;;
15806;SDS011;8005;51.368;6.140;2022-10-16T02:04:12;4.38;;;1.90;;
15806;SDS011;8005;51.368;6.140;2022-10-16T02:07:21;3.28;;;1.50;;
15806;SDS011;8005;51.368;6.140;2022-10-16T02:08:56;5.03;;;2.08;;
15806;SDS011;8005;51.368;6.140;2022-10-16T02:10:28;5.47;;;1.80;;
15806;SDS011;8005;51.368;6.140;2022-10-16T02:12:06;6.00;;;1.92;;
15806;SDS011;8005;51.368;6.140;2022-10-16T02:13:46;5.57;;;1.67;;
15806;SDS011;8005;51.368;6.140;2022-10-16T02:15:19;4.47;;;1.92;;
15806;SDS011;8005;51.368;6.140;2022-10-16T02:16:51;5.35;;;1.65;;
15806;SDS011;8005;51.368;6.140;2022-10-16T02:18:27;7.03;;;1.90;;
15806;SDS011;8005;51.368;6.140;2022-10-16T02:20:03;3.65;;;1.70;;
15806;SDS011;8005;51.368;6.140;2022-10-16T02:23:12;5.30;;;1.45;;
15806;SDS011;8005;51.368;6.140;2022-10-16T02:24:59;3.80;;;1.42;;
15806;SDS011;8005;51.368;6.140;2022-10-16T02:28:44;3.50;;;2.00;;
15806;SDS011;8005;51.368;6.140;2022-10-16T02:30:12;5.80;;;2.47;;
15806;SDS011;8005;51.368;6.140;2022-10-16T02:31:46;3.97;;;1.33;;
15806;SDS011;8005;51.368;6.140;2022-10-16T02:33:26;7.90;;;1.80;;
15806;SDS011;8005;51.368;6.140;2022-10-16T02:34:59;3.63;;;1.40;;
15806;SDS011;8005;51.368;6.140;2022-10-16T02:36:34;3.83;;;1.40;;
15806;SDS011;8005;51.368;6.140;2022-10-16T02:38:07;3.65;;;1.52;;
15806;SDS011;8005;51.368;6.140;2022-10-16T02:39:41;4.25;;;1.73;;
15806;SDS011;8005;51.368;6.140;2022-10-16T02:41:13;4.22;;;1.23;;
15806;SDS011;8005;51.368;6.140;2022-10-16T02:42:49;2.20;;;1.33;;
15806;SDS011;8005;51.368;6.140;2022-10-16T02:44:25;2.20;;;1.30;;
15806;SDS011;8005;51.368;6.140;2022-10-16T02:45:59;2.63;;;1.63;;
15806;SDS011;8005;51.368;6.140;2022-10-16T02:47:34;5.03;;;1.50;;
15806;SDS011;8005;51.368;6.140;2022-10-16T02:49:07;4.50;;;1.88;;
15806;SDS011;8005;51.368;6.140;2022-10-16T02:50:46;3.47;;;1.65;;
15806;SDS011;8005;51.368;6.140;2022-10-16T02:52:22;3.55;;;1.08;;
15806;SDS011;8005;51.368;6.140;2022-10-16T02:53:55;4.50;;;1.55;;
15806;SDS011;8005;51.368;6.140;2022-10-16T02:55:30;3.85;;;1.40;;
15806;SDS011;8005;51.368;6.140;2022-10-16T02:57:04;4.35;;;1.92;;
15806;SDS011;8005;51.368;6.140;2022-10-16T02:58:39;3.45;;;1.25;;
15806;SDS011;8005;51.368;6.140;2022-10-16T03:00:12;3.75;;;1.70;;
15806;SDS011;8005;51.368;6.140;2022-10-16T03:01:44;3.35;;;1.30;;
15806;SDS011;8005;51.368;6.140;2022-10-16T03:03:19;2.08;;;1.30;;
15806;SDS011;8005;51.368;6.140;2022-10-16T03:04:51;2.47;;;1.27;;
15806;SDS011;8005;51.368;6.140;2022-10-16T03:06:23;2.97;;;1.20;;
15806;SDS011;8005;51.368;6.140;2022-10-16T03:07:55;4.38;;;2.08;;
15806;SDS011;8005;51.368;6.140;2022-10-16T03:09:27;2.83;;;1.58;;
15806;SDS011;8005;51.368;6.140;2022-10-16T03:10:59;4.50;;;1.98;;
15806;SDS011;8005;51.368;6.140;2022-10-16T03:12:33;4.97;;;1.73;;
15806;SDS011;8005;51.368;6.140;2022-10-16T03:14:07;4.72;;;1.35;;
15806;SDS011;8005;51.368;6.140;2022-10-16T03:15:43;4.30;;;1.40;;
15806;SDS011;8005;51.368;6.140;2022-10-16T03:17:15;4.80;;;1.48;;
15806;SDS011;8005;51.368;6.140;2022-10-16T03:18:48;3.33;;;1.20;;
15806;SDS011;8005;51.368;6.140;2022-10-16T03:20:23;3.78;;;1.58;;
15806;SDS011;8005;51.368;6.140;2022-10-16T03:22:05;5.65;;;1.90;;
15806;SDS011;8005;51.368;6.140;2022-10-16T03:23:43;4.10;;;1.40;;
15806;SDS011;8005;51.368;6.140;2022-10-16T03:25:18;2.95;;;1.27;;
15806;SDS011;8005;51.368;6.140;2022-10-16T03:26:55;3.15;;;1.23;;
15806;SDS011;8005;51.368;6.140;2022-10-16T03:28:40;2.47;;;1.15;;
15806;SDS011;8005;51.368;6.140;2022-10-16T03:30:12;2.05;;;1.20;;
15806;SDS011;8005;51.368;6.140;2022-10-16T03:31:44;5.07;;;1.48;;
15806;SDS011;8005;51.368;6.140;2022-10-16T03:33:21;3.90;;;1.38;;
15806;SDS011;8005;51.368;6.140;2022-10-16T03:34:56;3.08;;;1.42;;
15806;SDS011;8005;51.368;6.140;2022-10-16T03:36:28;3.95;;;1.52;;
15806;SDS011;8005;51.368;6.140;2022-10-16T03:38:03;5.30;;;1.38;;
15806;SDS011;8005;51.368;6.140;2022-10-16T03:39:38;5.50;;;1.52;;
15806;SDS011;8005;51.368;6.140;2022-10-16T03:41:13;5.55;;;2.22;;
15806;SDS011;8005;51.368;6.140;2022-10-16T03:42:45;3.90;;;1.98;;
15806;SDS011;8005;51.368;6.140;2022-10-16T03:44:20;2.28;;;1.50;;
15806;SDS011;8005;51.368;6.140;2022-10-16T03:45:55;4.35;;;1.08;;
15806;SDS011;8005;51.368;6.140;2022-10-16T03:47:45;3.67;;;1.35;;
15806;SDS011;8005;51.368;6.140;2022-10-16T03:49:19;2.70;;;1.25;;
15806;SDS011;8005;51.368;6.140;2022-10-16T03:50:51;7.32;;;1.90;;
15806;SDS011;8005;51.368;6.140;2022-10-16T03:52:23;4.63;;;1.42;;
15806;SDS011;8005;51.368;6.140;2022-10-16T03:53:55;2.50;;;1.45;;
15806;SDS011;8005;51.368;6.140;2022-10-16T03:55:32;4.05;;;1.60;;
15806;SDS011;8005;51.368;6.140;2022-10-16T03:57:05;3.17;;;1.20;;
15806;SDS011;8005;51.368;6.140;2022-10-16T03:58:40;3.15;;;1.33;;
15806;SDS011;8005;51.368;6.140;2022-10-16T04:00:14;3.40;;;1.58;;
15806;SDS011;8005;51.368;6.140;2022-10-16T04:01:58;4.30;;;1.42;;
15806;SDS011;8005;51.368;6.140;2022-10-16T04:03:30;4.28;;;1.95;;
15806;SDS011;8005;51.368;6.140;2022-10-16T04:05:09;2.55;;;1.30;;
15806;SDS011;8005;51.368;6.140;2022-10-16T04:06:46;3.28;;;1.63;;
15806;SDS011;8005;51.368;6.140;2022-10-16T04:08:18;4.33;;;1.50;;
15806;SDS011;8005;51.368;6.140;2022-10-16T04:09:50;4.35;;;1.45;;
15806;SDS011;8005;51.368;6.140;2022-10-16T04:11:23;5.68;;;1.40;;
15806;SDS011;8005;51.368;6.140;2022-10-16T04:12:56;3.55;;;1.52;;
15806;SDS011;8005;51.368;6.140;2022-10-16T04:14:35;2.95;;;1.38;;
15806;SDS011;8005;51.368;6.140;2022-10-16T04:16:07;2.58;;;1.77;;
15806;SDS011;8005;51.368;6.140;2022-10-16T04:17:42;2.75;;;1.48;;
15806;SDS011;8005;51.368;6.140;2022-10-16T04:19:14;3.40;;;1.43;;
15806;SDS011;8005;51.368;6.140;2022-10-16T04:20:46;2.85;;;1.67;;
15806;SDS011;8005;51.368;6.140;2022-10-16T04:22:25;2.78;;;1.40;;
15806;SDS011;8005;51.368;6.140;2022-10-16T04:23:57;4.13;;;1.70;;
15806;SDS011;8005;51.368;6.140;2022-10-16T04:25:29;3.70;;;1.70;;
15806;SDS011;8005;51.368;6.140;2022-10-16T04:27:11;3.95;;;1.58;;
15806;SDS011;8005;51.368;6.140;2022-10-16T04:28:43;3.72;;;1.80;;
15806;SDS011;8005;51.368;6.140;2022-10-16T04:30:20;4.00;;;1.25;;
15806;SDS011;8005;51.368;6.140;2022-10-16T04:31:53;2.28;;;1.20;;
15806;SDS011;8005;51.368;6.140;2022-10-16T04:33:28;3.15;;;1.73;;
15806;SDS011;8005;51.368;6.140;2022-10-16T04:35:04;2.80;;;1.83;;
15806;SDS011;8005;51.368;6.140;2022-10-16T04:36:41;2.92;;;1.48;;
15806;SDS011;8005;51.368;6.140;2022-10-16T04:38:16;6.05;;;1.42;;
15806;SDS011;8005;51.368;6.140;2022-10-16T04:39:55;3.88;;;1.67;;
15806;SDS011;8005;51.368;6.140;2022-10-16T04:41:40;4.15;;;1.38;;
15806;SDS011;8005;51.368;6.140;2022-10-16T04:43:25;3.70;;;1.33;;
15806;SDS011;8005;51.368;6.140;2022-10-16T04:45:03;6.07;;;1.83;;
15806;SDS011;8005;51.368;6.140;2022-10-16T04:46:42;3.38;;;1.58;;
15806;SDS011;8005;51.368;6.140;2022-10-16T04:48:17;4.53;;;1.67;;
15806;SDS011;8005;51.368;6.140;2022-10-16T04:49:54;2.75;;;1.20;;
15806;SDS011;8005;51.368;6.140;2022-10-16T04:51:30;3.25;;;1.52;;
15806;SDS011;8005;51.368;6.140;2022-10-16T04:53:10;2.40;;;1.58;;
15806;SDS011;8005;51.368;6.140;2022-10-16T04:54:42;5.40;;;1.75;;
15806;SDS011;8005;51.368;6.140;2022-10-16T04:56:17;4.50;;;1.70;;
15806;SDS011;8005;51.368;6.140;2022-10-16T04:57:49;3.30;;;1.35;;
15806;SDS011;8005;51.368;6.140;2022-10-16T04:59:21;4.80;;;1.35;;
15806;SDS011;8005;51.368;6.140;2022-10-16T05:00:57;3.65;;;1.30;;
15806;SDS011;8005;51.368;6.140;2022-10-16T05:02:31;5.55;;;1.30;;
15806;SDS011;8005;51.368;6.140;2022-10-16T05:04:06;4.93;;;1.73;;
15806;SDS011;8005;51.368;6.140;2022-10-16T05:07:13;2.75;;;1.42;;
15806;SDS011;8005;51.368;6.140;2022-10-16T05:08:48;3.85;;;1.40;;
15806;SDS011;8005;51.368;6.140;2022-10-16T05:10:20;3.90;;;1.52;;
15806;SDS011;8005;51.368;6.140;2022-10-16T05:12:01;2.42;;;1.25;;
15806;SDS011;8005;51.368;6.140;2022-10-16T05:13:36;6.38;;;1.40;;
15806;SDS011;8005;51.368;6.140;2022-10-16T05:15:16;3.53;;;1.35;;
15806;SDS011;8005;51.368;6.140;2022-10-16T05:16:52;3.53;;;1.35;;
15806;SDS011;8005;51.368;6.140;2022-10-16T05:18:26;4.72;;;1.30;;
15806;SDS011;8005;51.368;6.140;2022-10-16T05:19:58;2.75;;;1.13;;
15806;SDS011;8005;51.368;6.140;2022-10-16T05:21:31;1.90;;;1.20;;
15806;SDS011;8005;51.368;6.140;2022-10-16T05:23:06;3.13;;;1.17;;
15806;SDS011;8005;51.368;6.140;2022-10-16T05:24:41;2.67;;;1.15;;
15806;SDS011;8005;51.368;6.140;2022-10-16T05:26:13;3.70;;;1.70;;
15806;SDS011;8005;51.368;6.140;2022-10-16T05:27:48;2.30;;;1.58;;
15806;SDS011;8005;51.368;6.140;2022-10-16T05:29:21;7.05;;;1.67;;
15806;SDS011;8005;51.368;6.140;2022-10-16T05:30:55;4.97;;;1.10;;
15806;SDS011;8005;51.368;6.140;2022-10-16T05:32:46;4.00;;;0.98;;
15806;SDS011;8005;51.368;6.140;2022-10-16T05:34:24;2.92;;;1.30;;
15806;SDS011;8005;51.368;6.140;2022-10-16T05:36:07;4.15;;;1.60;;
15806;SDS011;8005;51.368;6.140;2022-10-16T05:37:47;4.32;;;1.65;;
15806;SDS011;8005;51.368;6.140;2022-10-16T05:39:22;3.83;;;1.90;;
15806;SDS011;8005;51.368;6.140;2022-10-16T05:40:57;3.75;;;1.40;;
15806;SDS011;8005;51.368;6.140;2022-10-16T05:42:30;2.65;;;1.40;;
15806;SDS011;8005;51.368;6.140;2022-10-16T05:44:17;3.15;;;1.55;;
15806;SDS011;8005;51.368;6.140;2022-10-16T05:46:06;4.50;;;1.77;;
15806;SDS011;8005;51.368;6.140;2022-10-16T05:47:41;3.75;;;1.10;;
15806;SDS011;8005;51.368;6.140;2022-10-16T05:49:14;3.30;;;1.30;;
15806;SDS011;8005;51.368;6.140;2022-10-16T05:50:45;6.50;;;1.47;;
15806;SDS011;8005;51.368;6.140;2022-10-16T05:52:17;2.50;;;1.30;;
15806;SDS011;8005;51.368;6.140;2022-10-16T05:53:49;5.70;;;1.63;;
15806;SDS011;8005;51.368;6.140;2022-10-16T05:55:21;4.32;;;1.88;;
15806;SDS011;8005;51.368;6.140;2022-10-16T05:56:53;3.80;;;1.67;;
15806;SDS011;8005;51.368;6.140;2022-10-16T05:58:25;3.15;;;1.63;;
15806;SDS011;8005;51.368;6.140;2022-10-16T05:59:57;5.53;;;1.95;;
15806;SDS011;8005;51.368;6.140;2022-10-16T06:01:29;2.28;;;1.45;;
15806;SDS011;8005;51.368;6.140;2022-10-16T06:04:34;10.50;;;1.90;;
15806;SDS011;8005;51.368;6.140;2022-10-16T06:06:12;3.25;;;1.60;;
15806;SDS011;8005;51.368;6.140;2022-10-16T06:07:45;2.80;;;1.80;;
15806;SDS011;8005;51.368;6.140;2022-10-16T06:09:16;5.28;;;2.10;;
15806;SDS011;8005;51.368;6.140;2022-10-16T06:10:49;4.87;;;1.73;;
15806;SDS011;8005;51.368;6.140;2022-10-16T06:12:31;3.50;;;2.08;;
15806;SDS011;8005;51.368;6.140;2022-10-16T06:14:03;3.38;;;2.00;;
15806;SDS011;8005;51.368;6.140;2022-10-16T06:15:38;5.55;;;2.20;;
15806;SDS011;8005;51.368;6.140;2022-10-16T06:17:13;3.42;;;2.00;;
15806;SDS011;8005;51.368;6.140;2022-10-16T06:18:45;4.30;;;2.20;;
15806;SDS011;8005;51.368;6.140;2022-10-16T06:20:17;3.58;;;1.90;;
15806;SDS011;8005;51.368;6.140;2022-10-16T06:21:49;4.60;;;2.35;;
15806;SDS011;8005;51.368;6.140;2022-10-16T06:23:21;6.88;;;2.00;;
15806;SDS011;8005;51.368;6.140;2022-10-16T06:24:55;5.53;;;2.55;;
15806;SDS011;8005;51.368;6.140;2022-10-16T06:26:28;4.78;;;2.05;;
15806;SDS011;8005;51.368;6.140;2022-10-16T06:28:00;6.57;;;2.78;;
15806;SDS011;8005;51.368;6.140;2022-10-16T06:29:31;5.68;;;2.63;;
15806;SDS011;8005;51.368;6.140;2022-10-16T06:31:07;3.50;;;2.65;;
15806;SDS011;8005;51.368;6.140;2022-10-16T06:32:41;4.95;;;3.00;;
15806;SDS011;8005;51.368;6.140;2022-10-16T06:34:13;4.25;;;3.00;;
15806;SDS011;8005;51.368;6.140;2022-10-16T06:35:45;5.15;;;2.55;;
15806;SDS011;8005;51.368;6.140;2022-10-16T06:37:17;7.20;;;2.45;;
15806;SDS011;8005;51.368;6.140;2022-10-16T06:38:49;11.00;;;2.90;;
15806;SDS011;8005;51.368;6.140;2022-10-16T06:40:23;4.97;;;2.40;;
15806;SDS011;8005;51.368;6.140;2022-10-16T06:41:55;6.65;;;3.30;;
15806;SDS011;8005;51.368;6.140;2022-10-16T06:43:32;6.45;;;2.80;;
15806;SDS011;8005;51.368;6.140;2022-10-16T06:45:07;5.20;;;2.60;;
15806;SDS011;8005;51.368;6.140;2022-10-16T06:46:39;7.32;;;2.80;;
15806;SDS011;8005;51.368;6.140;2022-10-16T06:48:11;3.60;;;2.60;;
15806;SDS011;8005;51.368;6.140;2022-10-16T06:49:43;5.15;;;2.85;;
15806;SDS011;8005;51.368;6.140;2022-10-16T06:51:21;5.97;;;2.47;;
15806;SDS011;8005;51.368;6.140;2022-10-16T06:52:53;4.78;;;2.65;;
15806;SDS011;8005;51.368;6.140;2022-10-16T06:54:25;6.40;;;3.20;;
15806;SDS011;8005;51.368;6.140;2022-10-16T06:55:57;7.90;;;5.20;;
15806;SDS011;8005;51.368;6.140;2022-10-16T06:57:29;5.97;;;3.60;;
15806;SDS011;8005;51.368;6.140;2022-10-16T06:59:03;6.55;;;2.88;;
15806;SDS011;8005;51.368;6.140;2022-10-16T07:00:35;4.55;;;3.00;;
15806;SDS011;8005;51.368;6.140;2022-10-16T07:02:09;6.18;;;3.20;;
15806;SDS011;8005;51.368;6.140;2022-10-16T07:03:42;11.15;;;3.53;;
15806;SDS011;8005;51.368;6.140;2022-10-16T07:05:16;7.78;;;3.40;;
15806;SDS011;8005;51.368;6.140;2022-10-16T07:06:49;6.82;;;3.15;;
15806;SDS011;8005;51.368;6.140;2022-10-16T07:08:25;11.65;;;4.05;;
15806;SDS011;8005;51.368;6.140;2022-10-16T07:09:57;6.55;;;3.88;;
15806;SDS011;8005;51.368;6.140;2022-10-16T07:11:28;10.43;;;3.95;;
15806;SDS011;8005;51.368;6.140;2022-10-16T07:13:01;9.63;;;4.73;;
15806;SDS011;8005;51.368;6.140;2022-10-16T07:14:35;5.50;;;3.70;;
15806;SDS011;8005;51.368;6.140;2022-10-16T10:55:25;7.22;;;0.80;;
15806;SDS011;8005;51.368;6.140;2022-10-16T10:57:09;2.45;;;0.50;;
15806;SDS011;8005;51.368;6.140;2022-10-16T11:00:40;2.83;;;0.63;;
15806;SDS011;8005;51.368;6.140;2022-10-16T11:05:32;3.35;;;0.50;;
15806;SDS011;8005;51.368;6.140;2022-10-16T11:07:05;3.42;;;0.50;;
15806;SDS011;8005;51.368;6.140;2022-10-16T11:08:41;3.88;;;0.43;;
15806;SDS011;8005;51.368;6.140;2022-10-16T11:10:16;2.60;;;0.50;;
15806;SDS011;8005;51.368;6.140;2022-10-16T11:11:52;2.45;;;0.65;;
15806;SDS011;8005;51.368;6.140;2022-10-16T11:16:43;3.47;;;0.57;;
15806;SDS011;8005;51.368;6.140;2022-10-16T11:18:17;5.32;;;0.73;;
15806;SDS011;8005;51.368;6.140;2022-10-16T11:19:53;4.03;;;0.52;;
15806;SDS011;8005;51.368;6.140;2022-10-16T11:21:26;5.45;;;0.70;;
15806;SDS011;8005;51.368;6.140;2022-10-16T11:24:44;3.75;;;0.82;;
15806;SDS011;8005;51.368;6.140;2022-10-16T11:26:21;3.40;;;0.73;;
15806;SDS011;8005;51.368;6.140;2022-10-16T11:27:57;3.10;;;0.65;;
15806;SDS011;8005;51.368;6.140;2022-10-16T11:29:30;4.68;;;0.40;;
15806;SDS011;8005;51.368;6.140;2022-10-16T11:31:10;4.53;;;0.70;;
15806;SDS011;8005;51.368;6.140;2022-10-16T11:36:11;4.63;;;0.60;;
15806;SDS011;8005;51.368;6.140;2022-10-16T11:37:45;4.13;;;1.02;;
15806;SDS011;8005;51.368;6.140;2022-10-16T11:39:23;4.43;;;0.60;;
15806;SDS011;8005;51.368;6.140;2022-10-16T11:40:56;2.25;;;0.47;;
15806;SDS011;8005;51.368;6.140;2022-10-16T11:42:32;5.60;;;0.73;;
15806;SDS011;8005;51.368;6.140;2022-10-16T11:45:58;3.95;;;0.82;;
15806;SDS011;8005;51.368;6.140;2022-10-16T11:47:43;4.03;;;0.43;;
15806;SDS011;8005;51.368;6.140;2022-10-16T11:49:30;4.30;;;0.45;;
15806;SDS011;8005;51.368;6.140;2022-10-16T11:55:52;1.48;;;0.50;;
15806;SDS011;8005;51.368;6.140;2022-10-16T11:57:26;3.53;;;0.50;;
15806;SDS011;8005;51.368;6.140;2022-10-16T11:59:03;6.63;;;0.70;;
15806;SDS011;8005;51.368;6.140;2022-10-16T12:00:39;2.25;;;0.60;;
15806;SDS011;8005;51.368;6.140;2022-10-16T12:02:30;2.50;;;0.43;;
15806;SDS011;8005;51.368;6.140;2022-10-16T12:04:29;2.17;;;0.60;;
15806;SDS011;8005;51.368;6.140;2022-10-16T12:07:53;3.65;;;0.60;;
15806;SDS011;8005;51.368;6.140;2022-10-16T12:09:28;2.45;;;0.40;;
15806;SDS011;8005;51.368;6.140;2022-10-16T12:12:51;3.47;;;0.57;;
15806;SDS011;8005;51.368;6.140;2022-10-16T12:16:21;1.67;;;0.30;;
15806;SDS011;8005;51.368;6.140;2022-10-16T12:17:54;3.72;;;0.80;;
15806;SDS011;8005;51.368;6.140;2022-10-16T12:19:28;4.35;;;0.40;;
15806;SDS011;8005;51.368;6.140;2022-10-16T12:21:07;2.22;;;0.40;;
15806;SDS011;8005;51.368;6.140;2022-10-16T12:22:41;3.50;;;0.43;;
15806;SDS011;8005;51.368;6.140;2022-10-16T12:24:32;2.38;;;0.90;;
15806;SDS011;8005;51.368;6.140;2022-10-16T12:26:10;4.82;;;0.77;;
15806;SDS011;8005;51.368;6.140;2022-10-16T12:27:42;3.20;;;0.45;;
15806;SDS011;8005;51.368;6.140;2022-10-16T12:30:59;3.70;;;0.52;;
15806;SDS011;8005;51.368;6.140;2022-10-16T12:32:39;2.20;;;0.60;;
15806;SDS011;8005;51.368;6.140;2022-10-16T12:34:39;2.20;;;0.60;;
15806;SDS011;8005;51.368;6.140;2022-10-16T12:36:26;3.53;;;0.50;;
15806;SDS011;8005;51.368;6.140;2022-10-16T14:16:52;2.33;;;0.40;;
15806;SDS011;8005;51.368;6.140;2022-10-16T14:21:01;1.77;;;0.30;;
15806;SDS011;8005;51.368;6.140;2022-10-16T14:25:01;1.83;;;0.30;;
15806;SDS011;8005;51.368;6.140;2022-10-16T14:27:45;2.60;;;0.47;;
15806;SDS011;8005;51.368;6.140;2022-10-16T14:30:03;7.15;;;0.60;;
15806;SDS011;8005;51.368;6.140;2022-10-16T14:32:20;3.60;;;1.52;;
15806;SDS011;8005;51.368;6.140;2022-10-16T14:34:26;6.68;;;0.95;;
15806;SDS011;8005;51.368;6.140;2022-10-16T14:36:18;2.13;;;0.68;;
15806;SDS011;8005;51.368;6.140;2022-10-16T14:38:43;2.58;;;0.65;;
15806;SDS011;8005;51.368;6.140;2022-10-16T14:49:01;1.70;;;0.70;;
15806;SDS011;8005;51.368;6.140;2022-10-16T15:13:36;2.10;;;1.38;;
15806;SDS011;8005;51.368;6.140;2022-10-16T15:20:10;5.30;;;0.93;;
15806;SDS011;8005;51.368;6.140;2022-10-16T15:24:23;5.97;;;1.20;;
15806;SDS011;8005;51.368;6.140;2022-10-16T15:26:37;5.60;;;1.00;;
15806;SDS011;8005;51.368;6.140;2022-10-16T15:28:41;3.88;;;1.10;;
15806;SDS011;8005;51.368;6.140;2022-10-16T15:33:04;1.65;;;0.80;;
15806;SDS011;8005;51.368;6.140;2022-10-16T15:35:27;5.82;;;1.40;;
15806;SDS011;8005;51.368;6.140;2022-10-16T16:19:26;5.93;;;1.73;;
15806;SDS011;8005;51.368;6.140;2022-10-16T16:32:04;4.85;;;2.00;;
15806;SDS011;8005;51.368;6.140;2022-10-16T16:40:34;8.07;;;2.75;;
15806;SDS011;8005;51.368;6.140;2022-10-16T16:46:01;8.25;;;4.25;;
15806;SDS011;8005;51.368;6.140;2022-10-16T16:51:05;8.82;;;5.15;;
15806;SDS011;8005;51.368;6.140;2022-10-16T16:52:50;12.15;;;6.10;;
15806;SDS011;8005;51.368;6.140;2022-10-16T16:54:37;10.63;;;5.85;;
15806;SDS011;8005;51.368;6.140;2022-10-16T16:56:45;11.52;;;4.95;;
15806;SDS011;8005;51.368;6.140;2022-10-16T16:58:24;8.35;;;4.95;;
15806;SDS011;8005;51.368;6.140;2022-10-16T17:00:21;8.93;;;4.65;;
15806;SDS011;8005;51.368;6.140;2022-10-16T17:02:03;9.32;;;4.38;;
15806;SDS011;8005;51.368;6.140;2022-10-16T17:03:46;9.27;;;4.68;;
15806;SDS011;8005;51.368;6.140;2022-10-16T17:05:21;6.85;;;4.35;;
15806;SDS011;8005;51.368;6.140;2022-10-16T17:06:56;8.98;;;5.25;;
15806;SDS011;8005;51.368;6.140;2022-10-16T17:09:07;10.95;;;4.70;;
15806;SDS011;8005;51.368;6.140;2022-10-16T17:24:16;7.78;;;4.10;;
15806;SDS011;8005;51.368;6.140;2022-10-16T17:26:31;8.70;;;3.90;;
15806;SDS011;8005;51.368;6.140;2022-10-16T17:28:49;8.50;;;4.05;;
15806;SDS011;8005;51.368;6.140;2022-10-16T17:30:47;7.88;;;4.00;;
15806;SDS011;8005;51.368;6.140;2022-10-16T17:33:08;8.98;;;2.78;;
15806;SDS011;8005;51.368;6.140;2022-10-16T17:34:40;7.18;;;3.55;;
15806;SDS011;8005;51.368;6.140;2022-10-16T17:36:18;10.02;;;3.17;;
15806;SDS011;8005;51.368;6.140;2022-10-16T17:38:17;7.80;;;3.17;;
15806;SDS011;8005;51.368;6.140;2022-10-16T17:39:55;4.68;;;2.78;;
15806;SDS011;8005;51.368;6.140;2022-10-16T17:41:27;5.40;;;2.80;;
15806;SDS011;8005;51.368;6.140;2022-10-16T17:45:38;7.80;;;2.30;;
15806;SDS011;8005;51.368;6.140;2022-10-16T17:47:10;4.63;;;2.75;;
15806;SDS011;8005;51.368;6.140;2022-10-16T17:48:58;6.15;;;2.70;;
15806;SDS011;8005;51.368;6.140;2022-10-16T17:51:19;8.27;;;3.30;;
15806;SDS011;8005;51.368;6.140;2022-10-16T17:52:55;6.28;;;2.83;;
15806;SDS011;8005;51.368;6.140;2022-10-16T17:54:40;7.57;;;2.72;;
15806;SDS011;8005;51.368;6.140;2022-10-16T17:58:36;4.07;;;2.55;;
15806;SDS011;8005;51.368;6.140;2022-10-16T18:00:22;4.70;;;2.13;;
15806;SDS011;8005;51.368;6.140;2022-10-16T18:02:10;8.35;;;2.42;;
15806;SDS011;8005;51.368;6.140;2022-10-16T18:03:47;5.10;;;1.88;;
15806;SDS011;8005;51.368;6.140;2022-10-16T18:05:21;6.30;;;2.47;;
15806;SDS011;8005;51.368;6.140;2022-10-16T18:06:54;7.45;;;2.42;;
15806;SDS011;8005;51.368;6.140;2022-10-16T18:08:32;6.85;;;2.50;;
15806;SDS011;8005;51.368;6.140;2022-10-16T18:18:58;7.82;;;2.50;;
15806;SDS011;8005;51.368;6.140;2022-10-16T18:20:54;3.65;;;1.85;;
15806;SDS011;8005;51.368;6.140;2022-10-16T18:23:08;4.75;;;1.80;;
15806;SDS011;8005;51.368;6.140;2022-10-16T18:25:04;4.53;;;1.73;;
15806;SDS011;8005;51.368;6.140;2022-10-16T18:27:09;4.60;;;1.42;;
15806;SDS011;8005;51.368;6.140;2022-10-16T18:28:44;4.38;;;1.55;;
15806;SDS011;8005;51.368;6.140;2022-10-16T18:30:21;3.80;;;1.27;;